Pagrindinis puslapis
METAR-TAF:

METAR-TAF

Oro uostai :

Beirutas, Libanas

platuma: 33-49N, ilguma: 035-29E, Aukštis: 29 m

Dabartinis oras

Ataskaita buvo paskelbta 36 minutes, ne 20:00 UTC
Vėjas 7 kt iš Pietryčių
Temperatūra 15°C
Drėgmė 51%
Slėgis 1020 hPa
Matomumas 10 km arba daugiau
nėra debesų žemiau 1500 m ir nėra kamuolinių lietaus debesų

METAR: OLBA 152000Z 14007KT CAVOK 15/05 Q1020 NOSIG

Laikas: 22:36 (20:36 UTC)

Prognozė

Ataskaita buvo paskelbta 4 valandos ir 36 minutes, ne 16:00 UTC
Prognozė galioja nuo 15 metu 18 UTC su 16 metu 24 UTC
Vėjas 4 kt iš Rytų/Pietryčių
Matomumas 10 km arba daugiau
nėra debesų žemiau 1500 m ir nėra kamuolinių lietaus debesų
Tapsmas
nuo 16 metu 06 UTC su 16 metu 09 UTC
Vėjas 12 kt iš Šiaurės
Tapsmas
nuo 16 metu 16 UTC su 16 metu 18 UTC
Vėjas 5 kt iš Pietryčių

TAF: OLBA 151600Z 1518/1624 12004KT CAVOK BECMG 1606/1609 01012KT BECMG 1616/1618 13005KT

Orai ataskaitas ir orų prognozės (METAR, TAF).

turimą stotys yra geltonos ir raudonos taškus žemėlapyje.

Perkelti pele per norėdami pamatyti stoties vardą.

Tada spustelėkite, norėdami matyti oro stebėjimo ir prognozės.

Norėdami pakeisti žemėlapį: spustelėkite ant žalios mygtukų su juodo kryžiaus žemyn,; žalią mygtuką su brūkšneliu, jei norite nutolinti; arba žalių rodyklių gretimoms žemėlapius.


METAR-TAF: